Pagrindinis puslapis
METAR-TAF:

METAR-TAF

Oro uostai :

Lelistadas, Nyderlandai

platuma: 52-27-37N, ilguma: 005-31-38E, Aukštis: -4 m

Dabartinis oras

Ataskaita buvo paskelbta 29 minutes, ne 04:25 UTC
Vėjas 6 kt iš Šiaurės Rytų
Temperatūra 10°C
Drėgmė 82%
Slėgis 1024 hPa
Matomumas 10 km arba daugiau

METAR: EHLE 310425Z AUTO 05006KT 9999 NCD 10/07 Q1024

Laikas: 06:54 (04:54 UTC)

Prognozė

Ataskaita buvo paskelbta 5 valandos ir 56 minutes, ne 22:58 UTC
Prognozė galioja nuo 31 metu 00 UTC su 01 metu 06 UTC
Vėjas 8 kt iš Rytų/Šiaurės Rytų
Matomumas 10 km arba daugiau
nėra debesų žemiau 1500 m ir nėra kamuolinių lietaus debesų
Tapsmas
nuo 31 metu 06 UTC su 31 metu 09 UTC
Vėjas 14 kt iš Rytų/Šiaurės Rytų
Tapsmas
nuo 31 metu 17 UTC su 31 metu 20 UTC
Vėjas 8 kt iš Šiaurės Rytų

TAF: EHLE 302258Z 3100/0106 06008KT CAVOK BECMG 3106/3109 07014KT BECMG 3117/3120 05008KT

Orai ataskaitas ir orų prognozės (METAR, TAF).

turimą stotys yra geltonos ir raudonos taškus žemėlapyje.

Perkelti pele per norėdami pamatyti stoties vardą.

Tada spustelėkite, norėdami matyti oro stebėjimo ir prognozės.

Norėdami pakeisti žemėlapį: spustelėkite ant žalios mygtukų su juodo kryžiaus žemyn,; žalią mygtuką su brūkšneliu, jei norite nutolinti; arba žalių rodyklių gretimoms žemėlapius.


METAR-TAF: